Time;durP1;ratioP1;P1;durP2;ratioP2;P2;SDS_P1;SDS_P2;PMS_P1;PMS_P2;Temp;Humidity;BMP_temperature;BMP_pressure;BME280_temperature;BME280_humidity;BME280_pressure;Samples;Min_cycle;Max_cycle;Signal;HPM_P1;HPM_P2
2023/12/05 00:01:02;;;;;;;4.50;4.10;;;7.60;99.90;;;;;;5011115;28;20457;-64
2023/12/05 00:03:27;;;;;;;4.50;4.10;;;7.70;99.90;;;;;;5014215;28;20171;-64
2023/12/05 00:05:53;;;;;;;5.90;5.17;;;7.70;99.90;;;;;;5013863;28;20187;-68
2023/12/05 00:08:19;;;;;;;4.47;4.10;;;7.70;99.90;;;;;;5015228;28;20248;-64
2023/12/05 00:10:45;;;;;;;6.00;5.50;;;7.70;99.90;;;;;;5014093;28;20282;-64
2023/12/05 00:13:11;;;;;;;4.57;4.27;;;7.80;99.90;;;;;;5013724;28;20265;-64
2023/12/05 00:15:36;;;;;;;4.97;4.67;;;7.70;99.90;;;;;;5015555;28;20175;-64
2023/12/05 00:18:02;;;;;;;4.70;4.40;;;7.60;99.90;;;;;;5013657;28;20430;-64
2023/12/05 00:20:28;;;;;;;4.93;4.57;;;7.80;99.90;;;;;;4996837;28;20259;-64
2023/12/05 00:22:54;;;;;;;5.07;4.70;;;7.60;99.90;;;;;;5014464;28;20183;-68
2023/12/05 00:25:19;;;;;;;5.07;4.67;;;7.70;99.90;;;;;;4996597;28;20187;-64
2023/12/05 00:27:45;;;;;;;4.50;4.20;;;7.70;99.90;;;;;;4996517;28;20190;-64
2023/12/05 00:30:11;;;;;;;5.17;4.77;;;7.80;99.90;;;;;;5014379;28;20340;-64
2023/12/05 00:32:37;;;;;;;5.70;5.27;;;7.70;99.90;;;;;;5014227;28;20187;-64
2023/12/05 00:35:03;;;;;;;5.03;4.63;;;7.70;99.90;;;;;;5013412;28;20437;-64
2023/12/05 00:37:29;;;;;;;4.80;4.43;;;7.60;99.90;;;;;;4996523;28;20261;-64
2023/12/05 00:39:54;;;;;;;4.20;3.80;;;7.70;99.90;;;;;;5013279;28;20608;-68
2023/12/05 00:42:20;;;;;;;4.53;4.17;;;7.70;99.90;;;;;;5013674;28;20190;-64
2023/12/05 00:44:46;;;;;;;4.33;3.93;;;7.70;99.90;;;;;;4997148;28;20237;-64
2023/12/05 00:47:12;;;;;;;4.53;4.23;;;7.70;99.90;;;;;;5012740;28;20206;-64
2023/12/05 00:49:37;;;;;;;4.23;3.93;;;7.80;99.90;;;;;;4994628;28;20705;-64
2023/12/05 00:52:04;;;;;;;4.97;4.57;;;7.80;99.90;;;;;;5012935;28;20721;-65
2023/12/05 00:54:31;;;;;;;4.63;4.33;;;7.80;99.90;;;;;;5014387;28;20445;-64
2023/12/05 00:56:57;;;;;;;4.77;4.43;;;7.80;99.90;;;;;;5012985;28;20508;-68
2023/12/05 00:59:23;;;;;;;4.73;4.33;;;7.80;99.90;;;;;;5011580;28;20538;-65
2023/12/05 01:01:48;;;;;;;4.17;3.87;;;7.70;99.90;;;;;;4995217;28;20174;-64
2023/12/05 01:04:14;;;;;;;4.50;4.20;;;7.80;99.90;;;;;;4999466;28;20934;-64
2023/12/05 01:06:40;;;;;;;4.53;4.20;;;7.70;99.90;;;;;;4998427;28;20521;-64
2023/12/05 01:09:06;;;;;;;4.73;4.40;;;7.50;99.90;;;;;;5013221;28;20422;-64
2023/12/05 01:11:32;;;;;;;5.10;4.20;;;7.50;99.90;;;;;;5013445;28;20705;-64
2023/12/05 01:13:58;;;;;;;5.27;4.87;;;7.20;99.90;;;;;;5013189;28;20398;-67
2023/12/05 01:16:24;;;;;;;4.93;4.53;;;7.10;99.90;;;;;;4995596;28;20847;-64
2023/12/05 01:18:50;;;;;;;5.10;4.70;;;7.20;99.90;;;;;;5012899;28;20944;-64
2023/12/05 01:21:16;;;;;;;4.60;4.30;;;7.00;99.90;;;;;;5012138;28;20551;-65
2023/12/05 01:23:41;;;;;;;4.60;4.30;;;7.10;99.90;;;;;;5014517;28;20199;-64
2023/12/05 01:26:07;;;;;;;6.20;4.50;;;7.20;99.90;;;;;;5011077;28;20182;-64
2023/12/05 01:28:33;;;;;;;4.50;4.20;;;7.10;99.90;;;;;;4989052;28;20175;-64
2023/12/05 01:30:59;;;;;;;5.13;4.63;;;7.00;99.90;;;;;;4995303;28;20256;-68
2023/12/05 01:33:24;;;;;;;4.90;4.50;;;7.10;99.90;;;;;;5012994;28;20201;-64
2023/12/05 01:35:50;;;;;;;4.83;4.47;;;7.00;99.90;;;;;;5013394;28;20186;-64
2023/12/05 01:38:18;;;;;;;4.57;3.90;;;6.80;99.90;;;;;;5013062;28;20178;-64
2023/12/05 01:40:44;;;;;;;4.63;4.30;;;6.80;99.90;;;;;;4994868;28;20238;-64
2023/12/05 01:43:10;;;;;;;4.57;4.17;;;7.00;99.90;;;;;;5009741;28;20545;-64
2023/12/05 01:45:36;;;;;;;4.47;4.17;;;7.00;99.90;;;;;;5011555;28;20509;-64
2023/12/05 01:48:04;;;;;;;4.30;4.00;;;7.00;99.90;;;;;;5012906;28;20167;-65
2023/12/05 01:50:31;;;;;;;4.20;3.90;;;7.10;99.90;;;;;;5006817;28;20836;-63
2023/12/05 01:53:02;;;;;;;4.20;3.90;;;7.20;99.90;;;;;;5004215;28;20965;-67
2023/12/05 01:55:28;;;;;;;4.77;4.33;;;7.40;99.90;;;;;;5012529;28;20947;-63
2023/12/05 01:57:55;;;;;;;4.27;3.87;;;7.50;99.90;;;;;;5008512;28;20438;-63
2023/12/05 02:00:23;;;;;;;4.73;4.43;;;7.60;99.90;;;;;;4992905;28;22255;-65
2023/12/05 02:02:49;;;;;;;4.90;4.50;;;7.70;99.90;;;;;;5012428;28;20510;-65
2023/12/05 02:05:15;;;;;;;4.67;4.27;;;7.70;99.90;;;;;;5011716;28;20437;-64
2023/12/05 02:07:41;;;;;;;4.30;3.93;;;7.70;99.90;;;;;;5012090;28;21053;-64
2023/12/05 02:10:08;;;;;;;4.07;3.87;;;7.70;99.90;;;;;;5012511;28;20438;-65
2023/12/05 02:12:37;;;;;;;4.00;3.80;;;7.80;99.90;;;;;;5010711;28;20436;-64
2023/12/05 02:15:04;;;;;;;4.40;4.10;;;7.80;99.90;;;;;;5007095;28;20831;-64
2023/12/05 02:17:55;;;;;;;4.50;4.13;;;7.80;99.90;;;;;;5011340;28;20404;-63
2023/12/05 02:20:58;;;;;;;4.67;4.27;;;7.80;99.90;;;;;;4983649;28;20463;-63
2023/12/05 02:23:45;;;;;;;4.13;3.80;;;7.80;99.90;;;;;;5009058;28;20453;-63
2023/12/05 02:26:37;;;;;;;4.47;4.17;;;7.80;99.90;;;;;;5010213;28;20474;-64
2023/12/05 02:29:03;;;;;;;5.90;4.30;;;7.70;99.90;;;;;;5003507;28;20524;-68
2023/12/05 02:31:29;;;;;;;4.70;4.40;;;7.70;99.90;;;;;;5011354;28;20429;-64
2023/12/05 02:33:54;;;;;;;4.33;4.03;;;7.80;99.90;;;;;;5012930;28;20410;-64
2023/12/05 02:36:25;;;;;;;4.10;3.90;;;7.80;99.90;;;;;;5011032;28;20740;-64
2023/12/05 02:39:05;;;;;;;3.87;3.67;;;7.80;99.90;;;;;;5011929;28;20622;-64
2023/12/05 02:41:34;;;;;;;4.20;3.90;;;7.80;99.90;;;;;;5009611;28;20509;-64
2023/12/05 02:44:12;;;;;;;4.37;4.07;;;7.70;99.90;;;;;;5007804;28;20433;-69
2023/12/05 02:46:41;;;;;;;4.40;4.00;;;7.80;99.90;;;;;;5011446;28;20433;-64
2023/12/05 02:49:07;;;;;;;4.23;3.93;;;7.80;99.90;;;;;;5011571;28;20454;-64
2023/12/05 02:51:33;;;;;;;4.23;3.93;;;7.80;99.90;;;;;;5010328;28;20855;-64
2023/12/05 02:54:05;;;;;;;4.77;4.47;;;7.70;99.90;;;;;;5010654;28;20557;-63
2023/12/05 02:56:32;;;;;;;3.83;3.63;;;7.80;99.90;;;;;;4994663;28;20171;-63
2023/12/05 02:58:57;;;;;;;4.23;4.00;;;7.80;99.90;;;;;;5011025;28;20433;-64
2023/12/05 03:01:23;;;;;;;4.00;3.77;;;7.80;99.90;;;;;;5010701;28;21231;-64
2023/12/05 03:03:49;;;;;;;3.80;3.60;;;7.90;99.90;;;;;;5011096;28;20688;-64
2023/12/05 03:06:15;;;;;;;4.07;3.87;;;7.90;99.90;;;;;;4994060;28;20183;-64
2023/12/05 03:08:40;;;;;;;4.10;3.80;;;8.00;99.90;;;;;;5011572;28;20206;-64
2023/12/05 03:11:06;;;;;;;4.40;4.07;;;7.90;99.90;;;;;;5010806;28;20551;-64
2023/12/05 03:13:32;;;;;;;3.97;3.77;;;8.00;99.90;;;;;;5012497;28;20183;-63
2023/12/05 03:15:58;;;;;;;4.33;4.03;;;8.00;99.90;;;;;;4993518;28;20433;-66
2023/12/05 03:18:26;;;;;;;3.50;3.30;;;8.00;99.90;;;;;;5010484;28;20268;-63
2023/12/05 03:20:52;;;;;;;3.73;3.53;;;7.90;99.90;;;;;;4994753;28;20569;-63
2023/12/05 03:23:18;;;;;;;4.30;4.00;;;7.50;99.90;;;;;;4992916;28;20937;-63
2023/12/05 03:25:44;;;;;;;3.90;3.70;;;7.60;99.90;;;;;;5011357;28;20249;-64
2023/12/05 03:28:09;;;;;;;4.13;3.83;;;7.70;99.90;;;;;;5010308;28;20917;-64
2023/12/05 03:30:35;;;;;;;4.10;3.80;;;7.60;99.90;;;;;;5010849;28;20638;-64
2023/12/05 03:33:01;;;;;;;3.90;3.60;;;7.60;99.90;;;;;;5011216;28;20240;-64
2023/12/05 03:35:27;;;;;;;3.93;3.73;;;7.50;99.90;;;;;;5011484;28;20179;-64
2023/12/05 03:37:52;;;;;;;3.93;3.63;;;7.60;99.90;;;;;;5014028;28;20627;-64
2023/12/05 03:40:18;;;;;;;3.60;3.40;;;7.60;99.90;;;;;;5014284;28;20210;-64
2023/12/05 03:42:44;;;;;;;3.60;3.40;;;7.70;99.90;;;;;;4998037;28;20252;-64
2023/12/05 03:45:10;;;;;;;3.80;3.60;;;7.70;99.90;;;;;;5014146;28;20425;-64
2023/12/05 03:47:35;;;;;;;3.53;3.33;;;7.50;99.90;;;;;;5014779;28;20548;-64
2023/12/05 03:50:02;;;;;;;3.93;3.67;;;7.70;99.90;;;;;;4997214;28;20183;-64
2023/12/05 03:52:27;;;;;;;3.37;3.17;;;7.80;99.90;;;;;;4997250;28;20218;-63
2023/12/05 03:54:53;;;;;;;3.83;3.63;;;7.90;99.90;;;;;;5013803;28;20430;-63
2023/12/05 03:57:19;;;;;;;3.43;3.23;;;7.90;99.90;;;;;;5013948;28;20228;-64
2023/12/05 03:59:46;;;;;;;3.77;3.57;;;7.90;99.90;;;;;;5015405;28;20215;-63
2023/12/05 04:02:13;;;;;;;3.40;3.20;;;7.90;99.90;;;;;;4996328;28;20203;-64
2023/12/05 04:04:39;;;;;;;3.73;3.53;;;8.00;99.90;;;;;;5014097;28;20425;-63
2023/12/05 04:07:05;;;;;;;3.87;3.67;;;7.80;99.90;;;;;;5014283;28;20190;-69
2023/12/05 04:09:31;;;;;;;4.13;3.83;;;7.90;99.90;;;;;;5014998;28;20416;-63
2023/12/05 04:11:57;;;;;;;3.80;3.60;;;7.90;99.90;;;;;;5014593;28;20265;-63
2023/12/05 04:14:24;;;;;;;4.40;4.10;;;7.90;99.90;;;;;;5013656;28;20175;-63
2023/12/05 04:16:50;;;;;;;4.47;4.17;;;7.90;99.90;;;;;;4997176;28;20512;-63
2023/12/05 04:19:16;;;;;;;4.93;4.53;;;7.90;99.90;;;;;;5013100;28;20488;-64
2023/12/05 04:21:41;;;;;;;4.93;4.63;;;7.90;99.90;;;;;;5013448;28;20989;-64
2023/12/05 04:24:07;;;;;;;5.20;4.80;;;7.90;99.90;;;;;;5013768;28;20429;-69
2023/12/05 04:26:33;;;;;;;4.57;4.27;;;7.80;99.90;;;;;;4997364;28;20183;-64
2023/12/05 04:28:59;;;;;;;4.77;4.47;;;7.90;99.90;;;;;;5012088;28;20174;-64
2023/12/05 04:31:27;;;;;;;4.80;4.50;;;8.00;99.90;;;;;;5013180;28;20203;-63
2023/12/05 04:33:53;;;;;;;4.87;4.47;;;8.00;99.90;;;;;;5014324;28;20175;-63
2023/12/05 04:36:19;;;;;;;4.70;4.37;;;7.90;99.90;;;;;;5013968;28;20479;-63
2023/12/05 04:38:45;;;;;;;6.20;5.80;;;7.80;99.90;;;;;;5014147;28;20189;-63
2023/12/05 04:41:11;;;;;;;4.87;4.50;;;7.90;99.90;;;;;;5013130;28;20480;-63
2023/12/05 04:43:36;;;;;;;6.90;6.43;;;7.80;99.90;;;;;;4995422;28;20222;-64
2023/12/05 04:46:02;;;;;;;7.27;6.77;;;7.80;99.90;;;;;;4996892;28;20186;-62
2023/12/05 04:48:28;;;;;;;5.57;5.07;;;7.70;99.90;;;;;;5012413;28;20171;-62
2023/12/05 04:50:54;;;;;;;4.83;4.50;;;7.70;99.90;;;;;;5014067;28;20499;-63
2023/12/05 04:53:19;;;;;;;6.87;6.37;;;7.60;99.90;;;;;;5012540;28;20272;-63
2023/12/05 04:55:45;;;;;;;5.07;4.67;;;7.60;99.90;;;;;;5014146;28;20531;-63
2023/12/05 04:58:11;;;;;;;5.10;4.70;;;7.70;99.90;;;;;;5013047;28;20209;-69
2023/12/05 05:00:37;;;;;;;8.47;7.97;;;7.70;99.90;;;;;;4979439;28;20217;-63
2023/12/05 05:03:03;;;;;;;4.60;4.30;;;7.80;99.90;;;;;;5014612;28;20410;-63
2023/12/05 05:05:29;;;;;;;4.90;4.50;;;7.80;99.90;;;;;;5012947;28;20252;-63
2023/12/05 05:07:55;;;;;;;7.53;7.13;;;7.90;99.90;;;;;;5013555;28;20429;-64
2023/12/05 05:10:21;;;;;;;7.63;7.20;;;8.00;99.90;;;;;;4996073;28;20414;-63
2023/12/05 05:12:46;;;;;;;4.80;4.50;;;8.00;99.90;;;;;;4996029;28;20615;-63
2023/12/05 05:15:12;;;;;;;4.47;4.13;;;8.00;99.90;;;;;;5008919;28;20179;-70
2023/12/05 05:17:38;;;;;;;5.10;4.70;;;7.80;99.90;;;;;;5014438;28;20580;-64
2023/12/05 05:20:04;;;;;;;5.13;4.63;;;7.80;99.90;;;;;;5013296;28;20245;-64
2023/12/05 05:22:30;;;;;;;5.60;5.20;;;7.90;99.90;;;;;;5012031;28;20250;-64
2023/12/05 05:24:56;;;;;;;5.20;4.90;;;8.00;99.90;;;;;;5014132;28;20407;-64
2023/12/05 05:27:22;;;;;;;4.87;4.57;;;8.00;99.90;;;;;;5011985;28;20274;-64
2023/12/05 05:29:47;;;;;;;4.20;3.90;;;8.00;99.90;;;;;;5011421;28;20719;-64
2023/12/05 05:32:13;;;;;;;4.17;3.77;;;7.90;99.90;;;;;;4994568;28;20653;-70
2023/12/05 05:34:39;;;;;;;4.53;4.23;;;8.00;99.90;;;;;;5013956;28;20186;-63
2023/12/05 05:37:04;;;;;;;3.33;3.13;;;8.10;99.90;;;;;;5013028;28;20195;-63
2023/12/05 05:39:30;;;;;;;5.33;5.03;;;8.20;99.90;;;;;;4994904;28;20827;-64
2023/12/05 05:41:56;;;;;;;5.87;5.47;;;8.20;99.90;;;;;;4995926;28;20187;-63
2023/12/05 05:44:22;;;;;;;4.47;4.07;;;8.00;99.90;;;;;;4994501;28;20441;-64
2023/12/05 05:46:48;;;;;;;4.50;4.20;;;7.90;99.90;;;;;;5011778;28;20182;-64
2023/12/05 05:49:13;;;;;;;6.50;6.10;;;8.00;99.90;;;;;;5013214;28;20512;-69
2023/12/05 05:51:39;;;;;;;6.30;5.70;;;8.00;99.90;;;;;;4995012;28;20227;-64
2023/12/05 05:54:05;;;;;;;4.00;3.70;;;8.10;99.90;;;;;;4995164;28;20548;-63
2023/12/05 05:56:38;;;;;;;4.33;3.93;;;8.10;99.90;;;;;;5011695;28;20187;-67
2023/12/05 05:59:03;;;;;;;6.03;5.63;;;8.10;99.90;;;;;;4993577;28;20195;-63
2023/12/05 06:01:29;;;;;;;7.47;6.67;;;8.20;99.90;;;;;;4995781;28;21002;-63
2023/12/05 06:03:55;;;;;;;4.60;4.20;;;8.10;99.90;;;;;;4994003;28;20184;-63
2023/12/05 06:06:20;;;;;;;4.40;4.10;;;8.10;99.90;;;;;;5012727;28;20171;-64
2023/12/05 06:08:46;;;;;;;7.20;6.60;;;8.20;99.90;;;;;;5012186;28;20179;-62
2023/12/05 06:11:13;;;;;;;7.57;6.97;;;8.10;99.90;;;;;;4994556;28;20195;-69
2023/12/05 06:13:38;;;;;;;7.23;6.00;;;8.10;99.90;;;;;;5013453;28;20258;-63
2023/12/05 06:16:05;;;;;;;5.40;5.00;;;8.10;99.90;;;;;;5002499;28;20934;-63
2023/12/05 06:18:30;;;;;;;7.23;6.73;;;8.20;99.90;;;;;;5001743;28;20215;-65
2023/12/05 06:20:57;;;;;;;4.47;4.13;;;8.30;99.90;;;;;;5012859;28;20485;-63
2023/12/05 06:23:23;;;;;;;4.67;4.37;;;8.40;99.90;;;;;;5010803;28;20187;-64
2023/12/05 06:25:49;;;;;;;4.67;4.30;;;8.40;99.90;;;;;;5012266;28;20430;-64
2023/12/05 06:28:15;;;;;;;5.93;5.53;;;8.50;99.90;;;;;;5012590;28;20446;-69
2023/12/05 06:30:41;;;;;;;5.47;5.07;;;8.40;99.90;;;;;;4993884;28;20217;-63
2023/12/05 06:33:07;;;;;;;5.43;5.13;;;8.00;99.90;;;;;;5010131;28;20194;-63
2023/12/05 06:35:32;;;;;;;4.83;4.43;;;7.80;99.90;;;;;;5012000;28;20726;-64
2023/12/05 06:37:58;;;;;;;6.00;5.60;;;7.90;99.90;;;;;;5012085;28;20670;-64
2023/12/05 06:40:24;;;;;;;4.73;4.23;;;7.80;99.90;;;;;;5010820;28;20583;-64
2023/12/05 06:42:50;;;;;;;4.80;4.50;;;7.90;99.90;;;;;;4995020;28;20187;-63
2023/12/05 06:45:16;;;;;;;6.17;5.83;;;8.00;99.90;;;;;;5011107;28;20266;-68
2023/12/05 06:47:41;;;;;;;5.10;4.70;;;7.90;99.90;;;;;;5011530;28;20556;-63
2023/12/05 06:50:11;;;;;;;4.80;4.40;;;8.00;99.90;;;;;;5011253;28;20190;-62
2023/12/05 06:52:40;;;;;;;4.37;3.97;;;8.10;99.90;;;;;;4993174;28;21181;-63
2023/12/05 06:55:07;;;;;;;6.60;6.10;;;7.90;99.90;;;;;;5011730;28;20433;-63
2023/12/05 06:57:32;;;;;;;5.90;5.50;;;7.70;99.90;;;;;;5011765;28;20504;-63
2023/12/05 06:59:58;;;;;;;5.00;4.63;;;7.80;99.90;;;;;;5010854;28;20602;-63
2023/12/05 07:02:24;;;;;;;5.50;5.00;;;7.70;99.90;;;;;;5010781;28;20193;-63
2023/12/05 07:04:50;;;;;;;4.93;4.53;;;7.80;99.90;;;;;;5011786;28;20260;-63
2023/12/05 07:07:16;;;;;;;5.60;5.10;;;7.90;99.90;;;;;;4994879;28;20197;-69
2023/12/05 07:09:42;;;;;;;7.20;6.70;;;7.80;99.90;;;;;;5009835;28;20444;-64
2023/12/05 07:12:08;;;;;;;5.60;5.10;;;7.70;99.90;;;;;;5011539;28;20566;-64
2023/12/05 07:14:35;;;;;;;6.67;6.00;;;7.80;99.90;;;;;;5011649;28;20463;-65
2023/12/05 07:17:01;;;;;;;5.83;5.40;;;7.80;99.90;;;;;;4992574;28;20436;-68
2023/12/05 07:19:26;;;;;;;5.60;5.17;;;8.00;99.90;;;;;;5005617;28;20504;-68
2023/12/05 07:21:52;;;;;;;6.07;5.67;;;8.10;99.90;;;;;;4993956;28;20516;-68
2023/12/05 07:24:18;;;;;;;6.03;5.53;;;8.20;99.90;;;;;;5002262;28;20194;-68
2023/12/05 07:26:46;;;;;;;5.20;4.80;;;8.10;99.90;;;;;;4996992;28;20224;-68
2023/12/05 07:29:12;;;;;;;7.20;6.67;;;8.30;99.90;;;;;;5005511;28;20192;-68
2023/12/05 07:31:38;;;;;;;8.00;5.30;;;8.30;99.90;;;;;;4999125;28;20429;-68
2023/12/05 07:34:04;;;;;;;5.57;5.03;;;8.20;99.90;;;;;;5006871;28;20210;-67
2023/12/05 07:36:29;;;;;;;5.57;5.03;;;8.10;99.90;;;;;;5010269;28;20434;-67
2023/12/05 07:38:55;;;;;;;6.93;6.43;;;8.10;99.90;;;;;;5009376;28;20270;-68
2023/12/05 07:41:24;;;;;;;6.80;6.30;;;8.20;99.90;;;;;;5009713;28;20208;-68
2023/12/05 07:43:50;;;;;;;6.93;6.23;;;8.20;99.90;;;;;;4992957;28;20195;-68
2023/12/05 07:46:16;;;;;;;6.93;6.40;;;8.30;99.90;;;;;;5009373;28;20956;-67
2023/12/05 07:48:42;;;;;;;5.47;4.97;;;8.30;99.90;;;;;;4998193;28;20435;-67
2023/12/05 07:51:08;;;;;;;5.80;5.30;;;8.30;99.90;;;;;;5003290;28;20435;-68
2023/12/05 07:53:34;;;;;;;5.73;5.30;;;8.20;99.90;;;;;;5009435;28;20477;-68
2023/12/05 07:56:00;;;;;;;6.73;5.60;;;8.40;99.90;;;;;;5011316;28;20426;-68
2023/12/05 07:58:25;;;;;;;5.47;5.00;;;8.30;99.90;;;;;;5001052;28;20634;-68
2023/12/05 08:00:51;;;;;;;5.70;5.20;;;8.30;99.90;;;;;;5002538;28;20292;-68
2023/12/05 08:03:17;;;;;;;5.40;4.97;;;8.30;99.90;;;;;;5002192;28;20190;-67
2023/12/05 08:05:43;;;;;;;7.37;6.73;;;8.60;99.90;;;;;;5010118;28;20191;-67
2023/12/05 08:08:08;;;;;;;5.60;5.20;;;9.30;99.90;;;;;;5008856;28;20428;-67
2023/12/05 08:10:35;;;;;;;5.50;5.10;;;10.00;99.90;;;;;;5008479;28;20191;-70
2023/12/05 08:13:01;;;;;;;6.63;6.23;;;10.20;99.90;;;;;;4982683;28;20230;-68
2023/12/05 08:15:28;;;;;;;5.07;4.77;;;10.60;99.90;;;;;;5010210;28;20505;-69
2023/12/05 08:17:53;;;;;;;4.90;4.60;;;11.10;99.90;;;;;;4976389;28;20942;-67
2023/12/05 08:20:19;;;;;;;4.80;4.43;;;11.50;99.90;;;;;;5010024;28;20466;-70
2023/12/05 08:22:45;;;;;;;5.50;5.20;;;11.70;99.90;;;;;;4997941;28;20179;-67
2023/12/05 08:25:11;;;;;;;5.20;4.00;;;11.50;99.90;;;;;;5013305;28;20224;-69
2023/12/05 08:27:37;;;;;;;3.53;3.33;;;11.80;99.90;;;;;;5006029;28;20306;-67
2023/12/05 08:30:03;;;;;;;5.90;5.50;;;12.00;99.90;;;;;;5007718;28;20471;-67
2023/12/05 08:32:30;;;;;;;5.67;5.27;;;12.40;99.90;;;;;;5005627;28;20198;-67
2023/12/05 08:34:55;;;;;;;4.30;4.10;;;12.40;99.90;;;;;;5011463;28;20423;-74
2023/12/05 08:37:22;;;;;;;3.90;3.70;;;12.20;99.90;;;;;;4999683;28;20499;-65
2023/12/05 08:39:48;;;;;;;4.60;4.20;;;12.30;99.90;;;;;;5013769;28;20176;-68
2023/12/05 08:42:14;;;;;;;3.50;3.30;;;12.70;99.90;;;;;;5013106;28;20530;-74
2023/12/05 08:44:39;;;;;;;6.10;5.53;;;12.70;99.90;;;;;;5009666;28;20184;-67
2023/12/05 08:47:05;;;;;;;4.50;4.20;;;12.30;99.90;;;;;;5008564;28;20267;-67
2023/12/05 08:49:31;;;;;;;4.63;4.33;;;12.20;99.90;;;;;;5011683;28;20183;-67
2023/12/05 08:51:57;;;;;;;4.40;4.10;;;11.90;99.90;;;;;;5002496;28;20227;-67
2023/12/05 08:54:22;;;;;;;5.10;4.70;;;12.00;99.90;;;;;;5007608;28;20217;-65
2023/12/05 08:56:48;;;;;;;4.10;3.83;;;12.20;99.90;;;;;;5014620;28;20630;-67
2023/12/05 08:59:14;;;;;;;4.00;3.70;;;12.50;99.90;;;;;;5004551;28;20187;-67
2023/12/05 09:01:40;;;;;;;4.37;4.07;;;12.60;99.90;;;;;;4992727;28;20943;-67
2023/12/05 09:04:07;;;;;;;6.33;6.03;;;12.30;99.90;;;;;;5008053;28;20231;-67
2023/12/05 09:06:33;;;;;;;3.23;3.03;;;12.30;99.90;;;;;;4998563;28;20526;-71
2023/12/05 09:08:59;;;;;;;6.37;5.90;;;12.60;99.90;;;;;;4995199;28;20465;-67
2023/12/05 09:11:24;;;;;;;4.60;4.30;;;12.90;99.90;;;;;;5009294;28;20452;-65
2023/12/05 09:13:51;;;;;;;3.57;3.37;;;13.00;99.90;;;;;;5012349;28;20185;-70
2023/12/05 09:16:16;;;;;;;542.20;303.43;;;12.80;99.90;;;;;;5013939;28;20225;-70
2023/12/05 09:18:42;;;;;;;31.83;20.07;;;12.40;99.90;;;;;;5012709;28;20600;-70
2023/12/05 09:21:09;;;;;;;5.37;5.07;;;12.30;99.90;;;;;;5011428;28;20275;-69
2023/12/05 09:23:34;;;;;;;4.10;3.80;;;11.80;99.90;;;;;;5004428;28;20192;-67
2023/12/05 09:26:00;;;;;;;3.17;3.00;;;11.90;99.90;;;;;;5013199;28;20505;-70
2023/12/05 09:28:27;;;;;;;2.73;2.63;;;11.90;99.90;;;;;;5004703;28;20233;-69
2023/12/05 09:30:53;;;;;;;3.27;2.97;;;12.10;99.90;;;;;;4998145;28;20188;-68
2023/12/05 09:33:20;;;;;;;4.73;4.43;;;13.10;99.90;;;;;;5010336;28;20776;-70
2023/12/05 09:35:46;;;;;;;4.30;4.00;;;14.10;99.90;;;;;;5006468;28;20175;-70
2023/12/05 09:38:11;;;;;;;5.23;4.93;;;15.20;97.00;;;;;;5012408;28;20430;-70
2023/12/05 09:40:37;;;;;;;5.00;4.80;;;16.00;95.10;;;;;;5012337;28;20199;-71
2023/12/05 09:43:05;;;;;;;3.70;3.50;;;16.70;92.80;;;;;;5011977;28;20183;-71
2023/12/05 09:45:39;;;;;;;4.27;4.17;;;16.90;91.20;;;;;;5012652;28;20430;-70
2023/12/05 09:48:08;;;;;;;4.50;4.30;;;17.00;90.60;;;;;;5013840;28;20382;-70
2023/12/05 09:50:36;;;;;;;4.47;4.27;;;17.40;89.40;;;;;;5012661;28;20434;-70
2023/12/05 09:53:04;;;;;;;4.27;4.17;;;17.40;89.60;;;;;;5012905;28;20468;-70
2023/12/05 09:55:33;;;;;;;4.90;4.70;;;18.00;86.90;;;;;;5013550;28;20427;-71
2023/12/05 09:57:59;;;;;;;4.73;4.53;;;19.40;82.50;;;;;;5013002;28;20523;-71
2023/12/05 10:00:25;;;;;;;3.57;3.47;;;20.50;76.90;;;;;;4994747;28;20211;-65
2023/12/05 10:02:53;;;;;;;3.63;3.50;;;20.10;74.90;;;;;;5014262;28;20401;-71
2023/12/05 10:05:20;;;;;;;4.37;4.20;;;20.50;74.20;;;;;;5012864;28;20565;-72
2023/12/05 10:07:49;;;;;;;4.73;4.53;;;20.90;72.80;;;;;;5012217;28;20448;-72
2023/12/05 10:10:17;;;;;;;3.93;3.83;;;21.00;71.50;;;;;;4996355;28;20916;-70
2023/12/05 10:12:44;;;;;;;4.70;4.43;;;20.70;68.70;;;;;;5012162;28;20450;-70
2023/12/05 10:15:10;;;;;;;4.20;4.00;;;20.60;71.10;;;;;;5012691;28;20939;-69
2023/12/05 10:17:35;;;;;;;4.60;4.40;;;20.40;69.30;;;;;;5013031;28;20492;-70
2023/12/05 10:20:01;;;;;;;4.20;4.00;;;19.80;71.60;;;;;;5012575;28;20209;-70
2023/12/05 10:22:28;;;;;;;3.87;3.67;;;19.30;73.70;;;;;;5011836;28;20179;-67
2023/12/05 10:24:55;;;;;;;4.67;4.47;;;18.90;74.90;;;;;;5013275;28;20214;-67
2023/12/05 10:27:21;;;;;;;2.60;2.50;;;18.50;77.00;;;;;;5013256;28;20422;-70
2023/12/05 10:29:47;;;;;;;4.80;4.60;;;18.40;78.70;;;;;;5011569;28;20452;-69
2023/12/05 10:32:13;;;;;;;3.83;3.53;;;18.30;78.20;;;;;;4995105;28;20171;-70
2023/12/05 10:34:47;;;;;;;3.90;3.80;;;18.10;79.30;;;;;;5012856;28;20198;-69
2023/12/05 10:37:13;;;;;;;3.47;3.37;;;17.90;79.00;;;;;;4993735;28;20407;-70
2023/12/05 10:39:39;;;;;;;2.80;2.70;;;17.50;80.40;;;;;;5006801;28;20475;-70
2023/12/05 10:42:07;;;;;;;2.80;2.70;;;17.40;81.90;;;;;;5012312;28;20524;-69
2023/12/05 10:44:38;;;;;;;3.57;3.37;;;17.50;83.10;;;;;;5012291;28;20171;-68
2023/12/05 10:47:08;;;;;;;3.13;3.03;;;17.50;82.30;;;;;;5011907;28;20433;-69
2023/12/05 10:49:34;;;;;;;3.60;3.40;;;17.60;83.10;;;;;;4994309;28;20448;-68
2023/12/05 10:52:05;;;;;;;3.60;3.50;;;17.60;82.30;;;;;;4994384;28;20969;-69
2023/12/05 10:54:31;;;;;;;2.80;2.70;;;17.50;83.30;;;;;;5011685;28;20768;-68
2023/12/05 10:56:57;;;;;;;5.13;4.93;;;17.20;83.10;;;;;;5013197;28;20549;-68
2023/12/05 10:59:28;;;;;;;3.00;2.83;;;16.80;84.30;;;;;;5011985;28;20770;-68
2023/12/05 11:01:56;;;;;;;2.53;2.43;;;16.60;86.50;;;;;;5012104;28;20488;-68
2023/12/05 11:04:25;;;;;;;4.93;4.73;;;16.50;86.70;;;;;;5012991;28;20406;-68
2023/12/05 11:06:52;;;;;;;2.90;2.80;;;16.10;85.50;;;;;;5011409;28;20433;-68
2023/12/05 11:09:18;;;;;;;5.00;4.90;;;15.40;90.20;;;;;;5012104;28;20781;-68
2023/12/05 11:11:50;;;;;;;3.57;3.37;;;15.40;90.80;;;;;;5011923;28;20424;-68
2023/12/05 11:14:19;;;;;;;3.17;3.07;;;15.40;91.30;;;;;;5011800;28;20425;-69
2023/12/05 11:16:53;;;;;;;3.30;3.20;;;15.40;91.20;;;;;;5011322;28;20422;-69
2023/12/05 11:19:55;;;;;;;3.50;3.40;;;15.00;91.50;;;;;;5011787;28;20428;-70
2023/12/05 11:22:50;;;;;;;3.63;3.47;;;14.60;93.10;;;;;;4994139;28;20542;-69
2023/12/05 11:25:39;;;;;;;5.40;5.20;;;14.60;93.30;;;;;;5000871;28;20451;-70
2023/12/05 11:28:15;;;;;;;3.43;3.33;;;14.00;94.60;;;;;;5002168;28;20600;-69
2023/12/05 11:31:05;;;;;;;2.53;2.43;;;13.90;95.40;;;;;;5011111;28;20472;-69
2023/12/05 11:33:50;;;;;;;2.97;2.87;;;13.80;96.20;;;;;;5010316;28;20529;-64
2023/12/05 11:36:39;;;;;;;3.07;2.97;;;13.70;96.30;;;;;;5011583;28;20426;-68
2023/12/05 11:39:06;;;;;;;2.27;2.00;;;13.40;97.20;;;;;;5011624;28;20434;-69
2023/12/05 11:41:31;;;;;;;3.23;3.03;;;13.30;98.40;;;;;;5010970;28;20944;-65
2023/12/05 11:44:12;;;;;;;2.10;2.00;;;13.20;98.90;;;;;;5008287;28;20435;-70
2023/12/05 11:46:42;;;;;;;2.40;2.20;;;12.80;99.80;;;;;;5007994;28;20213;-70
2023/12/05 11:49:07;;;;;;;2.83;2.73;;;12.40;99.90;;;;;;5010760;28;20831;-69
2023/12/05 11:51:35;;;;;;;3.73;3.57;;;12.40;99.90;;;;;;5011530;28;20555;-68
2023/12/05 11:54:01;;;;;;;4.13;3.83;;;12.20;99.90;;;;;;4994096;28;20543;-71
2023/12/05 11:56:28;;;;;;;3.20;3.10;;;12.10;99.90;;;;;;5011009;28;20785;-70
2023/12/05 11:59:14;;;;;;;3.83;3.53;;;12.10;99.90;;;;;;4995383;28;20777;-66
2023/12/05 12:01:43;;;;;;;2.90;2.80;;;12.10;99.90;;;;;;4983852;28;20924;-66
2023/12/05 12:04:22;;;;;;;3.47;3.27;;;12.40;99.90;;;;;;5014733;28;20521;-65
2023/12/05 12:06:51;;;;;;;3.30;3.10;;;12.80;99.90;;;;;;5006635;28;20997;-66
2023/12/05 12:09:17;;;;;;;2.60;2.50;;;13.20;99.90;;;;;;5011097;28;20429;-66
2023/12/05 12:11:43;;;;;;;2.77;2.67;;;13.10;99.90;;;;;;5013325;28;20424;-66
2023/12/05 12:14:18;;;;;;;2.93;2.83;;;13.10;99.90;;;;;;5014643;28;20185;-66
2023/12/05 12:16:46;;;;;;;2.80;2.70;;;13.50;99.90;;;;;;5013805;28;20535;-65
2023/12/05 12:19:13;;;;;;;3.60;3.50;;;13.00;99.90;;;;;;5014774;28;20468;-66
2023/12/05 12:21:39;;;;;;;4.67;4.47;;;13.20;99.90;;;;;;5012246;28;20469;-66
2023/12/05 12:24:07;;;;;;;3.57;3.47;;;13.20;99.90;;;;;;5002167;28;20909;-66
2023/12/05 12:26:32;;;;;;;3.10;3.00;;;13.40;99.90;;;;;;5009089;28;20475;-65
2023/12/05 12:29:11;;;;;;;2.80;2.70;;;13.30;99.90;;;;;;5005916;28;20924;-65
2023/12/05 12:31:37;;;;;;;3.07;2.97;;;13.10;99.90;;;;;;4987351;28;20249;-64
2023/12/05 12:34:07;;;;;;;2.60;2.50;;;13.30;99.90;;;;;;5007338;28;20422;-66
2023/12/05 12:36:34;;;;;;;4.30;2.83;;;13.30;99.90;;;;;;4989678;28;20927;-65
2023/12/05 12:39:01;;;;;;;2.30;2.30;;;13.60;99.90;;;;;;5007810;28;20434;-65
2023/12/05 12:41:27;;;;;;;2.30;2.20;;;13.40;99.90;;;;;;5015152;28;20454;-66
2023/12/05 12:43:53;;;;;;;2.60;2.50;;;13.70;99.90;;;;;;5013502;28;20429;-66
2023/12/05 12:46:20;;;;;;;2.80;2.57;;;14.10;99.90;;;;;;5014234;28;20186;-65
2023/12/05 12:48:45;;;;;;;2.50;2.40;;;14.30;99.90;;;;;;5014568;28;20415;-66
2023/12/05 12:51:12;;;;;;;4.93;4.73;;;14.50;99.70;;;;;;5013843;28;20425;-65
2023/12/05 12:53:38;;;;;;;3.07;2.97;;;14.70;99.90;;;;;;5013539;28;20448;-65